createdAt,value
2018-09-24T00:01:44.363Z,7.54
2018-09-24T00:04:13.008Z,7.55
2018-09-24T00:06:41.724Z,7.58
2018-09-24T00:09:10.757Z,7.59
2018-09-24T00:11:39.606Z,7.62
2018-09-24T00:14:08.381Z,7.62
2018-09-24T00:16:37.163Z,7.62
2018-09-24T00:19:05.888Z,7.59
2018-09-24T00:21:34.504Z,7.57
2018-09-24T00:24:03.250Z,7.59
2018-09-24T00:26:31.966Z,7.62
2018-09-24T00:29:00.881Z,7.62
2018-09-24T00:31:29.511Z,7.63
2018-09-24T00:33:58.285Z,7.63
2018-09-24T00:36:27.100Z,7.61
2018-09-24T00:38:56.198Z,7.61
2018-09-24T00:41:25.143Z,7.61
2018-09-24T00:43:53.793Z,7.60
2018-09-24T00:46:22.618Z,7.61
2018-09-24T00:48:51.446Z,7.60
2018-09-24T00:51:20.144Z,7.62
2018-09-24T00:53:48.891Z,7.64
2018-09-24T00:56:17.784Z,7.64
2018-09-24T00:58:46.497Z,7.63
2018-09-24T01:01:15.385Z,7.63
2018-09-24T01:03:44.028Z,7.62
2018-09-24T01:06:12.900Z,7.64
2018-09-24T01:08:41.505Z,7.65
2018-09-24T01:11:10.394Z,7.63
2018-09-24T01:13:39.455Z,7.67
2018-09-24T01:16:08.265Z,7.68
2018-09-24T01:18:37.721Z,7.70
2018-09-24T01:21:06.599Z,7.68
2018-09-24T01:23:35.336Z,7.67
2018-09-24T01:26:04.340Z,7.69
2018-09-24T01:28:33.257Z,7.70
2018-09-24T01:31:02.035Z,7.69
2018-09-24T01:33:30.923Z,7.71
2018-09-24T01:35:59.818Z,7.69
2018-09-24T01:38:35.168Z,7.68
2018-09-24T01:41:04.337Z,7.70
2018-09-24T01:43:33.036Z,7.69
2018-09-24T01:46:02.176Z,7.69
2018-09-24T01:48:30.827Z,7.69
2018-09-24T01:50:59.541Z,7.69
2018-09-24T01:53:28.563Z,7.70
2018-09-24T01:55:57.180Z,7.66
2018-09-24T01:58:25.897Z,7.69
2018-09-24T02:00:54.887Z,7.68
2018-09-24T02:03:32.261Z,7.68
2018-09-24T02:06:01.770Z,7.65
2018-09-24T02:08:30.999Z,7.63
2018-09-24T02:10:59.724Z,7.59
2018-09-24T02:13:28.435Z,7.61
2018-09-24T02:15:57.335Z,7.59
2018-09-24T02:18:26.076Z,7.61
2018-09-24T02:20:55.051Z,7.58
2018-09-24T02:23:23.885Z,7.54
2018-09-24T02:25:52.704Z,7.54
2018-09-24T02:28:21.844Z,7.52
2018-09-24T02:30:50.671Z,7.50
2018-09-24T02:33:19.541Z,7.48
2018-09-24T02:35:49.982Z,7.49
2018-09-24T02:38:19.725Z,7.48
2018-09-24T02:40:48.515Z,7.49
2018-09-24T02:43:23.388Z,7.47
2018-09-24T02:45:53.394Z,7.48
2018-09-24T02:48:22.157Z,7.47
2018-09-24T02:50:50.978Z,7.44
2018-09-24T02:53:19.748Z,7.41
2018-09-24T02:55:48.641Z,7.39
2018-09-24T02:58:18.843Z,7.41
2018-09-24T03:00:47.757Z,7.38
2018-09-24T03:03:16.419Z,7.37
2018-09-24T03:05:45.475Z,7.37
2018-09-24T03:08:14.966Z,7.37
2018-09-24T03:10:43.846Z,7.36
2018-09-24T03:13:12.704Z,7.33
2018-09-24T03:15:42.358Z,7.31
2018-09-24T03:18:11.587Z,7.32
2018-09-24T03:20:43.872Z,7.33
2018-09-24T03:23:12.573Z,7.28
2018-09-24T03:25:41.570Z,7.26
2018-09-24T03:28:10.226Z,7.23
2018-09-24T03:30:41.394Z,7.24
2018-09-24T03:33:10.316Z,7.24
2018-09-24T03:35:39.068Z,7.24
2018-09-24T03:38:08.042Z,7.20
2018-09-24T03:40:37.070Z,7.20
2018-09-24T03:43:05.902Z,7.18
2018-09-24T03:45:34.573Z,7.16
2018-09-24T03:48:03.366Z,7.12
2018-09-24T03:50:32.192Z,7.11
2018-09-24T03:53:00.918Z,7.09
2018-09-24T03:55:29.612Z,7.06
2018-09-24T03:57:58.456Z,7.02
2018-09-24T04:00:27.073Z,7.00
2018-09-24T04:02:55.801Z,6.99
2018-09-24T04:05:30.107Z,7.01
2018-09-24T04:08:04.155Z,7.00
2018-09-24T04:10:38.383Z,6.97
2018-09-24T04:13:12.180Z,6.99
2018-09-24T04:15:46.142Z,7.02
2018-09-24T04:18:20.251Z,7.01
2018-09-24T04:20:55.047Z,7.02
2018-09-24T04:23:32.252Z,7.02
2018-09-24T04:26:06.128Z,7.01
2018-09-24T04:28:40.223Z,7.02
2018-09-24T04:31:14.653Z,7.04
2018-09-24T04:33:48.675Z,7.08
2018-09-24T04:36:22.592Z,7.07
2018-09-24T04:38:56.539Z,7.04
2018-09-24T04:41:30.515Z,7.09
2018-09-24T04:44:04.486Z,7.11
2018-09-24T04:46:38.662Z,7.09
2018-09-24T04:49:12.704Z,7.10
2018-09-24T04:51:46.607Z,7.10
2018-09-24T04:54:20.719Z,7.10
2018-09-24T04:56:54.499Z,6.47
2018-09-24T04:59:28.313Z,7.10
2018-09-24T05:02:02.220Z,7.12
2018-09-24T05:04:36.259Z,7.12
2018-09-24T05:07:10.380Z,7.15
2018-09-24T05:09:44.132Z,7.17
2018-09-24T05:12:18.195Z,7.20
2018-09-24T05:14:52.344Z,7.21
2018-09-24T05:17:26.163Z,7.24
2018-09-24T05:20:00.105Z,7.23
2018-09-24T05:22:34.016Z,7.22
2018-09-24T05:25:09.419Z,7.22
2018-09-24T05:27:43.381Z,7.64
2018-09-24T05:30:17.037Z,8.83
2018-09-24T05:32:51.076Z,8.63
2018-09-24T05:35:25.003Z,8.04
2018-09-24T05:37:58.894Z,7.76
2018-09-24T05:40:32.971Z,7.65
2018-09-24T05:43:07.072Z,7.60
2018-09-24T05:45:41.044Z,7.51
2018-09-24T05:48:15.291Z,7.53
2018-09-24T05:50:49.260Z,7.58
2018-09-24T05:53:23.289Z,7.56
2018-09-24T05:55:57.299Z,7.58
2018-09-24T05:58:31.219Z,7.61
2018-09-24T06:01:05.153Z,7.59
2018-09-24T06:03:39.113Z,7.60
2018-09-24T06:06:12.994Z,7.57
2018-09-24T06:08:46.778Z,7.61
2018-09-24T06:11:20.834Z,7.58
2018-09-24T06:13:54.668Z,7.62
2018-09-24T06:16:28.677Z,7.90
2018-09-24T06:19:02.583Z,9.71
2018-09-24T06:21:36.766Z,11.67
2018-09-24T06:24:10.741Z,13.52
2018-09-24T06:26:44.892Z,14.07
2018-09-24T06:29:18.930Z,14.58
2018-09-24T06:31:52.850Z,15.58
2018-09-24T06:34:27.079Z,15.73
2018-09-24T06:37:01.212Z,16.33
2018-09-24T06:39:35.225Z,16.77
2018-09-24T06:42:09.215Z,16.11
2018-09-24T06:44:43.240Z,15.27
2018-09-24T06:47:17.050Z,14.25
2018-09-24T06:49:50.964Z,13.64
2018-09-24T06:52:25.102Z,12.96
2018-09-24T06:54:59.037Z,12.65
2018-09-24T06:57:33.074Z,11.85
2018-09-24T07:00:07.033Z,11.47
2018-09-24T07:02:41.034Z,11.40
2018-09-24T07:05:15.082Z,11.37
2018-09-24T07:07:49.262Z,11.22
2018-09-24T07:10:23.269Z,11.10
2018-09-24T07:12:57.081Z,10.75
2018-09-24T07:15:30.930Z,10.62
2018-09-24T07:18:04.952Z,10.59
2018-09-24T07:20:38.981Z,10.53
2018-09-24T07:23:12.916Z,10.28
2018-09-24T07:25:46.830Z,10.30
2018-09-24T07:28:20.846Z,10.37
2018-09-24T07:30:54.847Z,10.69
2018-09-24T07:33:29.049Z,11.26
2018-09-24T07:36:03.070Z,11.75
2018-09-24T07:38:36.973Z,11.85
2018-09-24T07:41:11.005Z,11.89
2018-09-24T07:43:44.925Z,12.17
2018-09-24T07:46:19.013Z,12.13
2018-09-24T07:48:53.173Z,11.75
2018-09-24T07:51:27.521Z,11.32
2018-09-24T07:54:01.886Z,11.13
2018-09-24T07:56:36.207Z,11.01
2018-09-24T07:59:10.522Z,10.85
2018-09-24T08:01:44.934Z,10.35
2018-09-24T08:04:19.271Z,10.02
2018-09-24T08:06:53.533Z,9.93
2018-09-24T08:09:27.848Z,9.78
2018-09-24T08:12:02.040Z,10.11
2018-09-24T08:14:36.296Z,10.67
2018-09-24T08:17:10.532Z,10.93
2018-09-24T08:19:44.852Z,11.12
2018-09-24T08:22:19.169Z,11.42
2018-09-24T08:24:53.528Z,11.67
2018-09-24T08:27:27.824Z,12.04
2018-09-24T08:30:02.335Z,12.13
2018-09-24T08:32:36.330Z,12.58
2018-09-24T08:35:10.710Z,13.05
2018-09-24T08:37:44.994Z,13.31
2018-09-24T08:40:19.338Z,13.10
2018-09-24T08:42:53.453Z,13.28
2018-09-24T08:45:27.706Z,13.07
2018-09-24T08:48:02.151Z,13.13
2018-09-24T08:50:36.456Z,13.24
2018-09-24T08:53:17.861Z,13.62
2018-09-24T08:55:52.127Z,13.61
2018-09-24T08:58:26.612Z,13.80
2018-09-24T09:01:00.849Z,14.06
2018-09-24T09:03:35.292Z,14.26
2018-09-24T09:06:09.644Z,14.36
2018-09-24T09:08:44.039Z,14.16
2018-09-24T09:11:18.365Z,14.24
2018-09-24T09:13:52.592Z,13.77
2018-09-24T09:16:26.793Z,14.10
2018-09-24T09:19:01.231Z,14.02
2018-09-24T09:21:35.418Z,13.82
2018-09-24T09:24:09.949Z,13.34
2018-09-24T09:26:44.191Z,13.69
2018-09-24T09:29:18.559Z,14.39
2018-09-24T09:31:53.031Z,14.64
2018-09-24T09:34:27.286Z,14.87
2018-09-24T09:37:01.406Z,14.93
2018-09-24T09:39:35.713Z,14.69
2018-09-24T09:42:09.904Z,14.40
2018-09-24T09:44:44.230Z,14.01
2018-09-24T09:47:33.485Z,13.45
2018-09-24T09:50:07.840Z,13.60
2018-09-24T09:52:42.039Z,13.67
2018-09-24T09:55:16.245Z,13.77
2018-09-24T09:57:50.704Z,14.09
2018-09-24T10:00:24.879Z,13.99
2018-09-24T10:02:59.260Z,14.13
2018-09-24T10:05:33.436Z,14.12
2018-09-24T10:08:07.793Z,13.98
2018-09-24T10:10:42.125Z,14.16
2018-09-24T10:13:16.441Z,14.15
2018-09-24T10:15:50.858Z,14.19
2018-09-24T10:18:25.110Z,13.90
2018-09-24T10:20:59.571Z,13.34
2018-09-24T10:23:34.236Z,12.76
2018-09-24T10:26:08.564Z,12.32
2018-09-24T10:28:42.900Z,12.12
2018-09-24T10:31:17.054Z,12.05
2018-09-24T10:33:51.508Z,12.09
2018-09-24T10:36:25.673Z,12.06
2018-09-24T10:39:00.110Z,11.78
2018-09-24T10:41:34.638Z,11.68
2018-09-24T10:44:09.096Z,11.44
2018-09-24T10:46:43.449Z,11.45
2018-09-24T10:49:17.728Z,11.54
2018-09-24T10:51:52.024Z,11.56
2018-09-24T10:54:26.626Z,11.56
2018-09-24T10:57:00.698Z,11.68
2018-09-24T10:59:35.634Z,11.68
2018-09-24T11:02:10.148Z,11.61
2018-09-24T11:04:44.557Z,11.63
2018-09-24T11:07:18.988Z,11.61
2018-09-24T11:09:53.574Z,11.58
2018-09-24T11:12:27.715Z,11.61
2018-09-24T11:15:01.916Z,11.68
2018-09-24T11:17:36.209Z,11.57
2018-09-24T11:20:10.803Z,11.55
2018-09-24T11:22:45.058Z,11.67
2018-09-24T11:25:19.227Z,12.04
2018-09-24T11:27:53.457Z,12.23
2018-09-24T11:30:27.846Z,12.26
2018-09-24T11:33:02.188Z,12.11
2018-09-24T11:35:36.614Z,11.78
2018-09-24T11:38:11.015Z,11.58
2018-09-24T11:40:45.448Z,11.42
2018-09-24T11:43:19.694Z,11.27
2018-09-24T11:45:54.025Z,11.21
2018-09-24T11:48:28.555Z,11.07
2018-09-24T11:51:02.807Z,11.07
2018-09-24T11:53:36.939Z,11.03
2018-09-24T11:56:11.364Z,10.94
2018-09-24T11:58:45.825Z,10.87
2018-09-24T12:01:20.268Z,10.79
2018-09-24T12:03:54.890Z,10.70
2018-09-24T12:06:29.153Z,10.67
2018-09-24T12:09:03.292Z,10.64
2018-09-24T12:11:37.814Z,10.73
2018-09-24T12:14:12.181Z,10.79
2018-09-24T12:16:46.563Z,10.86
2018-09-24T12:19:20.893Z,10.74
2018-09-24T12:21:55.125Z,10.76
2018-09-24T12:24:29.519Z,10.70
2018-09-24T12:27:03.877Z,10.81
2018-09-24T12:29:38.291Z,10.82
2018-09-24T12:32:12.578Z,10.83
2018-09-24T12:34:47.143Z,10.91
2018-09-24T12:37:21.602Z,11.03
2018-09-24T12:39:55.985Z,10.93
2018-09-24T12:42:30.217Z,10.96
2018-09-24T12:45:04.653Z,10.91
2018-09-24T12:47:38.787Z,10.95
2018-09-24T12:50:13.067Z,10.81
2018-09-24T12:52:47.522Z,10.86
2018-09-24T12:55:22.018Z,11.00
2018-09-24T12:57:56.161Z,11.06
2018-09-24T13:00:30.581Z,11.08
2018-09-24T13:03:04.745Z,11.03
2018-09-24T13:05:39.174Z,10.92
2018-09-24T13:08:13.648Z,10.89
2018-09-24T13:10:48.167Z,10.82
2018-09-24T13:13:22.320Z,10.80
2018-09-24T13:15:56.749Z,10.77
2018-09-24T13:18:37.593Z,10.79
2018-09-24T13:21:11.940Z,10.56
2018-09-24T13:23:46.268Z,10.66
2018-09-24T13:26:20.704Z,10.71
2018-09-24T13:28:54.785Z,10.77
2018-09-24T13:31:29.049Z,10.84
2018-09-24T13:34:03.379Z,10.89
2018-09-24T13:36:37.721Z,10.95
2018-09-24T13:39:14.223Z,11.03
2018-09-24T13:41:48.793Z,11.11
2018-09-24T13:44:23.189Z,11.21
2018-09-24T13:46:57.423Z,11.10
2018-09-24T13:49:31.712Z,11.04
2018-09-24T13:52:05.860Z,11.03
2018-09-24T13:54:40.242Z,11.05
2018-09-24T13:57:14.631Z,11.07
2018-09-24T13:59:49.089Z,11.12
2018-09-24T14:02:23.423Z,11.16
2018-09-24T14:04:57.584Z,11.09
2018-09-24T14:07:31.820Z,11.06
2018-09-24T14:10:06.199Z,10.93
2018-09-24T14:12:40.618Z,10.85
2018-09-24T14:15:14.775Z,10.76
2018-09-24T14:17:49.233Z,10.68
2018-09-24T14:20:23.532Z,10.52
2018-09-24T14:22:57.877Z,10.45
2018-09-24T14:25:32.067Z,10.33
2018-09-24T14:28:06.520Z,10.25
2018-09-24T14:30:40.800Z,10.19
2018-09-24T14:33:15.016Z,10.16
2018-09-24T14:35:49.192Z,10.14
2018-09-24T14:38:23.339Z,10.10
2018-09-24T14:40:57.930Z,10.07
2018-09-24T14:43:32.233Z,10.03
2018-09-24T14:46:06.562Z,9.98
2018-09-24T14:48:40.875Z,9.87
2018-09-24T14:51:15.092Z,9.73
2018-09-24T14:53:49.267Z,9.72
2018-09-24T14:56:23.512Z,9.63
2018-09-24T14:58:57.655Z,9.58
2018-09-24T15:01:32.196Z,9.53
2018-09-24T15:04:06.705Z,9.44
2018-09-24T15:06:41.156Z,9.36
2018-09-24T15:09:15.844Z,9.36
2018-09-24T15:11:50.268Z,9.32
2018-09-24T15:14:24.384Z,9.32
2018-09-24T15:16:58.531Z,9.29
2018-09-24T15:19:32.908Z,9.25
2018-09-24T15:22:07.112Z,9.19
2018-09-24T15:24:41.466Z,9.16
2018-09-24T15:27:15.870Z,9.18
2018-09-24T15:29:50.305Z,9.13
2018-09-24T15:32:24.503Z,9.14
2018-09-24T15:34:58.948Z,9.16
2018-09-24T15:37:33.363Z,9.17
2018-09-24T15:40:07.629Z,9.22
2018-09-24T15:42:41.763Z,9.23
2018-09-24T15:45:15.861Z,9.23
2018-09-24T15:47:50.349Z,9.24
2018-09-24T15:50:24.834Z,9.24
2018-09-24T15:52:58.874Z,9.14
2018-09-24T15:55:33.667Z,9.09
2018-09-24T15:58:08.204Z,9.03
2018-09-24T16:00:42.502Z,8.98
2018-09-24T16:03:20.767Z,8.98
2018-09-24T16:05:55.249Z,8.90
2018-09-24T16:08:33.927Z,8.85
2018-09-24T16:11:13.461Z,8.80
2018-09-24T16:13:53.075Z,8.73
2018-09-24T16:16:30.099Z,8.69
2018-09-24T16:19:04.406Z,8.65
2018-09-24T16:21:38.520Z,8.61
2018-09-24T16:24:12.715Z,8.57
2018-09-24T16:26:47.264Z,8.57
2018-09-24T16:29:21.822Z,8.53
2018-09-24T16:31:56.486Z,8.51
2018-09-24T16:34:37.934Z,8.49
2018-09-24T16:37:15.232Z,8.43
2018-09-24T16:39:52.213Z,8.39
2018-09-24T16:42:30.196Z,8.37
2018-09-24T16:45:07.367Z,8.34
2018-09-24T16:47:44.130Z,8.31
2018-09-24T16:50:24.803Z,8.27
2018-09-24T16:53:01.864Z,7.53
2018-09-24T16:55:38.651Z,8.24
2018-09-24T16:58:13.318Z,8.17
2018-09-24T17:00:50.533Z,8.16
2018-09-24T17:03:27.097Z,8.10
2018-09-24T17:06:03.685Z,8.05
2018-09-24T17:08:43.261Z,8.06
2018-09-24T17:11:19.584Z,7.98
2018-09-24T17:13:55.578Z,7.99
2018-09-24T17:16:33.806Z,7.96
2018-09-24T17:19:10.848Z,7.92
2018-09-24T17:21:46.585Z,7.88
2018-09-24T17:24:24.212Z,7.86
2018-09-24T17:26:58.630Z,7.81
2018-09-24T17:29:32.947Z,7.77
2018-09-24T17:32:06.918Z,7.72
2018-09-24T17:34:41.060Z,7.65
2018-09-24T17:37:15.210Z,7.64
2018-09-24T17:39:49.313Z,7.60
2018-09-24T17:42:23.436Z,7.56
2018-09-24T17:44:57.376Z,7.52
2018-09-24T17:47:31.573Z,7.32
2018-09-24T17:50:05.619Z,7.45
2018-09-24T17:52:39.608Z,7.41
2018-09-24T17:55:14.036Z,7.40
2018-09-24T17:57:48.554Z,7.38
2018-09-24T18:00:23.014Z,7.32
2018-09-24T18:02:57.475Z,7.33
2018-09-24T18:05:31.749Z,7.27
2018-09-24T18:08:06.317Z,7.23
2018-09-24T18:10:40.631Z,7.17
2018-09-24T18:13:15.082Z,7.15
2018-09-24T18:15:49.392Z,7.09
2018-09-24T18:18:23.962Z,7.04
2018-09-24T18:20:58.331Z,7.02
2018-09-24T18:23:32.821Z,6.96
2018-09-24T18:26:07.146Z,6.94
2018-09-24T18:28:41.422Z,6.90
2018-09-24T18:31:15.825Z,6.85
2018-09-24T18:33:51.265Z,6.74
2018-09-24T18:36:25.574Z,6.69
2018-09-24T18:39:00.169Z,6.64
2018-09-24T18:41:34.546Z,6.63
2018-09-24T18:44:10.388Z,6.59
2018-09-24T18:46:45.238Z,6.60
2018-09-24T18:49:19.431Z,6.53
2018-09-24T18:51:53.563Z,6.49
2018-09-24T18:54:28.150Z,6.44
2018-09-24T18:57:02.273Z,6.35
2018-09-24T18:59:36.665Z,6.33
2018-09-24T19:02:12.301Z,6.30
2018-09-24T19:04:46.928Z,6.29
2018-09-24T19:07:22.427Z,6.21
2018-09-24T19:09:57.151Z,6.19
2018-09-24T19:12:32.093Z,6.15
2018-09-24T19:15:07.160Z,6.14
2018-09-24T19:17:41.963Z,6.10
2018-09-24T19:20:16.959Z,6.05
2018-09-24T19:22:51.804Z,6.05
2018-09-24T19:25:27.694Z,6.01
2018-09-24T19:28:02.528Z,5.97
2018-09-24T19:30:37.459Z,5.88
2018-09-24T19:33:12.807Z,5.89
2018-09-24T19:35:47.426Z,5.84
2018-09-24T19:38:21.734Z,5.82
2018-09-24T19:40:56.288Z,5.77
2018-09-24T19:43:30.871Z,5.73
2018-09-24T19:46:04.975Z,5.70
2018-09-24T19:48:39.173Z,5.65
2018-09-24T19:51:13.338Z,5.60
2018-09-24T19:53:47.373Z,5.55
2018-09-24T19:56:21.499Z,5.57
2018-09-24T19:58:55.966Z,5.53
2018-09-24T20:01:30.791Z,5.51
2018-09-24T20:04:05.050Z,5.47
2018-09-24T20:06:39.300Z,5.43
2018-09-24T20:09:14.663Z,5.41
2018-09-24T20:11:49.165Z,5.36
2018-09-24T20:14:23.601Z,5.37
2018-09-24T20:16:58.305Z,5.34
2018-09-24T20:19:32.736Z,5.32
2018-09-24T20:22:07.114Z,5.28
2018-09-24T20:24:41.328Z,5.26
2018-09-24T20:27:15.461Z,5.21
2018-09-24T20:29:50.125Z,5.17
2018-09-24T20:32:24.443Z,5.13
2018-09-24T20:34:58.548Z,5.09
2018-09-24T20:37:32.872Z,5.05
2018-09-24T20:40:07.937Z,5.01
2018-09-24T20:42:42.201Z,5.01
2018-09-24T20:45:16.730Z,4.97
2018-09-24T20:47:50.947Z,4.90
2018-09-24T20:50:25.295Z,4.89
2018-09-24T20:52:59.219Z,4.87
2018-09-24T20:55:33.179Z,4.83
2018-09-24T20:58:07.274Z,4.78
2018-09-24T21:00:41.317Z,4.73
2018-09-24T21:03:15.394Z,4.71
2018-09-24T21:05:49.410Z,4.68
2018-09-24T21:08:23.540Z,4.64
2018-09-24T21:10:57.394Z,4.63
2018-09-24T21:13:31.420Z,4.61
2018-09-24T21:16:05.632Z,4.62
2018-09-24T21:18:39.685Z,4.59
2018-09-24T21:21:13.645Z,4.55
2018-09-24T21:23:47.624Z,4.55
2018-09-24T21:26:21.641Z,4.56
2018-09-24T21:28:55.795Z,4.54
2018-09-24T21:31:29.598Z,4.50
2018-09-24T21:34:03.440Z,4.45
2018-09-24T21:36:37.358Z,4.42
2018-09-24T21:39:12.695Z,4.39
2018-09-24T21:41:46.868Z,4.41
2018-09-24T21:44:21.373Z,4.32
2018-09-24T21:46:55.346Z,4.32
2018-09-24T21:49:29.319Z,4.29
2018-09-24T21:52:03.357Z,4.27
2018-09-24T21:54:37.301Z,4.23
2018-09-24T21:57:11.371Z,4.21
2018-09-24T21:59:45.738Z,4.18
2018-09-24T22:02:19.934Z,4.16
2018-09-24T22:04:54.000Z,4.11
2018-09-24T22:07:28.091Z,4.09
2018-09-24T22:10:02.006Z,4.04
2018-09-24T22:12:36.144Z,3.99
2018-09-24T22:15:10.056Z,3.96
2018-09-24T22:17:43.892Z,3.89
2018-09-24T22:20:17.878Z,3.88
2018-09-24T22:22:51.884Z,3.83
2018-09-24T22:25:25.805Z,3.81
2018-09-24T22:27:59.780Z,3.79
2018-09-24T22:30:33.811Z,3.73
2018-09-24T22:33:07.842Z,3.72
2018-09-24T22:35:41.672Z,3.69
2018-09-24T22:38:15.680Z,3.65
2018-09-24T22:40:49.529Z,3.58
2018-09-24T22:43:23.697Z,3.53
2018-09-24T22:45:57.804Z,3.49
2018-09-24T22:48:31.809Z,3.45
2018-09-24T22:51:05.801Z,3.42
2018-09-24T22:53:39.821Z,3.37
2018-09-24T22:56:13.875Z,3.35
2018-09-24T22:58:47.990Z,3.34
2018-09-24T23:01:22.038Z,3.33
2018-09-24T23:03:56.093Z,3.33
2018-09-24T23:06:30.114Z,3.32
2018-09-24T23:09:04.245Z,3.29
2018-09-24T23:11:38.650Z,3.27
2018-09-24T23:14:12.768Z,3.25
2018-09-24T23:16:46.914Z,3.21
2018-09-24T23:19:20.959Z,3.20
2018-09-24T23:21:55.139Z,3.18
2018-09-24T23:24:29.174Z,3.18
2018-09-24T23:27:03.317Z,3.17
2018-09-24T23:29:37.158Z,3.13
2018-09-24T23:32:11.283Z,3.11
2018-09-24T23:34:45.223Z,3.08
2018-09-24T23:37:19.200Z,3.10
2018-09-24T23:39:53.121Z,3.10
2018-09-24T23:42:27.091Z,3.11
2018-09-24T23:45:01.037Z,3.08
2018-09-24T23:47:35.005Z,3.06
2018-09-24T23:50:08.923Z,3.02
2018-09-24T23:52:42.798Z,2.99
2018-09-24T23:55:16.766Z,3.00
2018-09-24T23:57:50.731Z,2.98
